Armstrong, Texas
Current Conditions -  °F | °C
As of 9:15 AM on Wednesday 26 Nov 2014 (Local Time) from KBKS Reporting Station
Clear Clear  
Wind Chill: 56°   Ceiling: Unl
Heat Index: 56°   Visibility: 10mi
Dew Point: 42°   Wind: 5mph
Humidity: 60%   Direction: 190°S
Pressure: 30.31"   Gusts: NA
Location:  26.92°N, 97.79°W
Report Text: KBKS 261515Z AUTO 19004KT 10SM CLR 13/06 A3031 RMK AO1 T01310056
Loading
Personal Weather Stations






























Interactive Weather Map New forecast layout! Learn more

10-Day Weather Forecast

Advertisements
Track Severe Weather on mobile